createdAt,value
2023-03-31T00:00:17.590Z,99597.63
2023-03-31T00:03:24.083Z,99592.38
2023-03-31T00:06:26.383Z,99584.81
2023-03-31T00:09:29.852Z,99585.75
2023-03-31T00:12:34.116Z,99578.06
2023-03-31T00:15:35.910Z,99580.47
2023-03-31T00:18:41.033Z,99575.78
2023-03-31T00:21:49.323Z,99580.63
2023-03-31T00:24:51.421Z,99562.91
2023-03-31T00:27:54.694Z,99558.56
2023-03-31T00:31:00.888Z,99557.25
2023-03-31T00:34:03.130Z,99539.47
2023-03-31T00:37:05.454Z,99536.41
2023-03-31T00:40:12.057Z,99531.94
2023-03-31T00:43:28.881Z,99532.72
2023-03-31T00:46:34.578Z,99518.56
2023-03-31T00:49:40.527Z,99513.72
2023-03-31T00:52:42.381Z,99508.19
2023-03-31T00:55:47.158Z,99514.84
2023-03-31T00:58:50.994Z,99513.06
2023-03-31T01:01:53.937Z,99509.97
2023-03-31T01:05:02.479Z,99501.41
2023-03-31T01:08:06.294Z,99499.66
2023-03-31T01:11:11.745Z,99499.56
2023-03-31T01:14:15.432Z,99490.88
2023-03-31T01:17:22.429Z,99487.19
2023-03-31T01:20:37.302Z,99481.56
2023-03-31T01:24:10.719Z,99478.50
2023-03-31T01:27:33.738Z,99465.22
2023-03-31T01:30:52.292Z,99467.75
2023-03-31T01:34:26.220Z,99462.50
2023-03-31T01:38:13.031Z,99445.50
2023-03-31T01:41:31.157Z,99444.03
2023-03-31T01:44:47.382Z,99442.41
2023-03-31T01:47:58.043Z,99439.69
2023-03-31T01:51:03.283Z,99435.75
2023-03-31T01:54:13.638Z,99427.75
2023-03-31T01:57:23.253Z,99422.28
2023-03-31T02:00:29.616Z,99418.38
2023-03-31T02:03:37.197Z,99411.66
2023-03-31T02:06:43.811Z,99407.84
2023-03-31T02:09:50.599Z,99397.44
2023-03-31T02:12:55.758Z,99391.38
2023-03-31T02:16:02.947Z,99401.22
2023-03-31T02:19:06.331Z,99390.03
2023-03-31T02:22:09.692Z,99377.44
2023-03-31T02:25:19.530Z,99376.06
2023-03-31T02:28:28.335Z,99372.28
2023-03-31T02:31:44.324Z,99363.47
2023-03-31T02:34:46.279Z,99374.09
2023-03-31T02:37:49.936Z,99365.31
2023-03-31T02:40:51.808Z,99359.34
2023-03-31T02:43:54.986Z,99348.94
2023-03-31T02:46:58.665Z,99358.16
2023-03-31T02:50:02.831Z,99358.72
2023-03-31T02:53:17.488Z,99347.44
2023-03-31T02:56:32.812Z,99337.34
2023-03-31T02:59:47.889Z,99330.28
2023-03-31T03:03:14.670Z,99314.16
2023-03-31T03:06:27.753Z,99305.00
2023-03-31T03:09:45.504Z,99287.84
2023-03-31T03:12:56.229Z,99272.91
2023-03-31T03:16:06.173Z,99262.50
2023-03-31T03:19:08.602Z,99255.53
2023-03-31T03:22:11.677Z,99246.28
2023-03-31T03:25:17.332Z,99232.56
2023-03-31T03:28:21.871Z,99231.78
2023-03-31T03:31:26.465Z,99231.19
2023-03-31T03:34:28.415Z,99228.47
2023-03-31T03:37:31.351Z,99205.94
2023-03-31T03:40:34.938Z,99205.94
2023-03-31T03:43:37.300Z,99187.53
2023-03-31T03:46:41.138Z,99176.31
2023-03-31T03:49:43.466Z,99174.28
2023-03-31T03:52:46.224Z,99165.59
2023-03-31T03:55:49.679Z,99159.50
2023-03-31T03:58:51.551Z,99133.22
2023-03-31T04:01:54.767Z,99141.09
2023-03-31T04:04:56.902Z,99133.00
2023-03-31T04:07:59.350Z,99122.06
2023-03-31T04:11:01.605Z,99132.19
2023-03-31T04:14:03.629Z,99140.75
2023-03-31T04:17:07.604Z,99122.47
2023-03-31T04:20:11.556Z,99135.13
2023-03-31T04:23:14.865Z,99120.25
2023-03-31T04:26:27.700Z,99111.47
2023-03-31T04:29:33.607Z,99091.28
2023-03-31T04:32:37.454Z,99079.00
2023-03-31T04:35:50.293Z,99078.41
2023-03-31T04:38:54.785Z,99074.59
2023-03-31T04:41:58.745Z,99068.22
2023-03-31T04:45:00.564Z,99062.34
2023-03-31T04:48:04.239Z,99067.72
2023-03-31T04:51:07.239Z,99085.72
2023-03-31T04:54:10.858Z,99083.50
2023-03-31T04:57:13.419Z,99078.97
2023-03-31T05:00:16.574Z,99088.97
2023-03-31T05:03:20.663Z,99092.84
2023-03-31T05:06:22.535Z,99082.91
2023-03-31T05:09:28.096Z,99079.94
2023-03-31T05:12:30.012Z,99077.66
2023-03-31T05:15:33.935Z,99070.94
2023-03-31T05:18:39.957Z,99066.94
2023-03-31T05:21:48.958Z,99069.47
2023-03-31T05:24:50.860Z,99069.69
2023-03-31T05:27:52.738Z,99061.13
2023-03-31T05:30:54.437Z,99057.25
2023-03-31T05:33:57.553Z,99052.66
2023-03-31T05:37:01.003Z,99055.28
2023-03-31T05:40:06.193Z,99039.78
2023-03-31T05:43:08.133Z,99040.38
2023-03-31T05:46:10.155Z,99023.09
2023-03-31T05:49:16.312Z,99013.25
2023-03-31T05:52:18.380Z,99012.84
2023-03-31T05:55:20.330Z,99006.66
2023-03-31T05:58:23.508Z,99001.19
2023-03-31T06:01:27.664Z,99000.88
2023-03-31T06:04:32.779Z,98993.69
2023-03-31T06:07:34.995Z,98991.16
2023-03-31T06:10:38.769Z,98993.22
2023-03-31T06:13:41.482Z,98972.22
2023-03-31T06:16:44.252Z,98951.78
2023-03-31T06:19:47.844Z,98933.19
2023-03-31T06:22:49.645Z,98919.47
2023-03-31T06:25:52.157Z,98918.78
2023-03-31T06:28:54.334Z,98902.59
2023-03-31T06:31:57.089Z,98882.63
2023-03-31T06:35:00.340Z,98878.00
2023-03-31T06:38:05.971Z,98855.28
2023-03-31T06:41:09.562Z,98867.44
2023-03-31T06:44:11.573Z,98858.56
2023-03-31T06:47:13.606Z,98859.50
2023-03-31T06:50:17.024Z,98860.59
2023-03-31T06:53:18.775Z,98857.69
2023-03-31T06:56:22.012Z,98861.75
2023-03-31T06:59:24.023Z,98863.34
2023-03-31T07:02:26.515Z,98858.03
2023-03-31T07:05:30.577Z,98869.66
2023-03-31T07:08:32.796Z,98868.03
2023-03-31T07:11:34.937Z,98870.88
2023-03-31T07:14:37.048Z,98857.94
2023-03-31T07:17:41.962Z,98873.00
2023-03-31T07:20:50.483Z,98868.53
2023-03-31T07:23:52.613Z,98872.59
2023-03-31T07:26:54.387Z,98861.19
2023-03-31T07:30:01.427Z,98860.75
2023-03-31T07:33:03.634Z,98863.38
2023-03-31T07:36:12.633Z,98858.13
2023-03-31T07:39:20.774Z,98858.88
2023-03-31T07:42:22.625Z,98862.03
2023-03-31T07:45:26.445Z,98858.00
2023-03-31T07:48:28.775Z,98852.25
2023-03-31T07:51:31.960Z,98845.06
2023-03-31T07:54:33.944Z,98851.72
2023-03-31T07:57:40.473Z,98869.13
2023-03-31T08:00:43.046Z,98899.47
2023-03-31T08:03:47.413Z,98888.25
2023-03-31T08:06:51.701Z,98872.97
2023-03-31T08:09:54.936Z,98871.25
2023-03-31T08:12:56.813Z,98906.19
2023-03-31T08:15:58.644Z,98886.78
2023-03-31T08:19:01.900Z,98882.69
2023-03-31T08:22:05.945Z,98901.03
2023-03-31T08:25:08.888Z,98883.41
2023-03-31T08:28:14.206Z,98882.16
2023-03-31T08:31:17.330Z,98878.16
2023-03-31T08:34:25.392Z,98912.63
2023-03-31T08:37:28.888Z,98898.25
2023-03-31T08:40:33.009Z,98925.66
2023-03-31T08:43:44.045Z,98923.81
2023-03-31T08:46:47.755Z,98919.94
2023-03-31T08:49:55.664Z,98913.13
2023-03-31T08:53:06.449Z,98908.84
2023-03-31T08:56:16.200Z,98910.09
2023-03-31T08:59:26.261Z,98917.94
2023-03-31T09:02:36.974Z,98904.41
2023-03-31T09:06:00.611Z,98886.94
2023-03-31T09:09:26.711Z,98889.84
2023-03-31T09:12:37.998Z,98890.41
2023-03-31T09:15:44.081Z,98873.00
2023-03-31T09:18:47.153Z,98869.38
2023-03-31T09:21:53.364Z,98888.22
2023-03-31T09:25:01.998Z,98903.13
2023-03-31T09:28:13.483Z,98895.19
2023-03-31T09:31:19.872Z,98900.69
2023-03-31T09:34:25.959Z,98907.78
2023-03-31T09:37:32.762Z,98971.75
2023-03-31T09:40:36.040Z,98958.63
2023-03-31T09:43:44.672Z,98961.69
2023-03-31T09:46:46.699Z,98968.34
2023-03-31T09:49:53.440Z,98950.88
2023-03-31T09:53:00.710Z,98932.78
2023-03-31T09:56:47.407Z,98909.53
2023-03-31T09:59:51.779Z,98892.41
2023-03-31T10:02:54.922Z,98869.75
2023-03-31T10:05:59.020Z,98868.97
2023-03-31T10:09:03.824Z,98851.41
2023-03-31T10:12:08.995Z,98844.97
2023-03-31T10:15:21.248Z,98843.25
2023-03-31T10:18:33.797Z,98833.31
2023-03-31T10:21:37.413Z,98806.91
2023-03-31T10:24:42.463Z,98819.97
2023-03-31T10:27:48.972Z,98809.16
2023-03-31T10:30:53.696Z,98815.09
2023-03-31T10:33:56.065Z,98803.19
2023-03-31T10:36:58.541Z,98801.88
2023-03-31T10:40:05.528Z,98796.34
2023-03-31T10:43:16.386Z,98800.38
2023-03-31T10:46:19.358Z,98791.31
2023-03-31T10:49:26.792Z,98785.06
2023-03-31T10:52:28.571Z,98806.16
2023-03-31T10:55:36.840Z,98760.22
2023-03-31T10:59:04.700Z,98748.50
2023-03-31T11:02:42.478Z,98760.22
2023-03-31T11:05:52.111Z,98757.50
2023-03-31T11:09:07.259Z,98769.72
2023-03-31T11:12:19.096Z,98774.72
2023-03-31T11:15:27.368Z,98753.84
2023-03-31T11:18:55.878Z,98759.78
2023-03-31T11:22:06.860Z,98762.44
2023-03-31T11:25:22.087Z,98748.47
2023-03-31T11:28:38.407Z,98762.25
2023-03-31T11:31:50.864Z,98751.28
2023-03-31T11:35:05.661Z,98758.56
2023-03-31T11:38:24.116Z,98747.59
2023-03-31T11:41:34.224Z,98745.13
2023-03-31T11:44:42.895Z,98747.81
2023-03-31T11:47:49.730Z,98746.75
2023-03-31T11:50:52.463Z,98751.75
2023-03-31T11:53:58.957Z,98743.66
2023-03-31T11:57:07.319Z,98730.66
2023-03-31T12:00:16.511Z,98733.72
2023-03-31T12:03:23.913Z,98727.41
2023-03-31T12:06:30.540Z,98736.47
2023-03-31T12:09:38.354Z,98738.13
2023-03-31T12:12:43.841Z,98715.97
2023-03-31T12:15:54.044Z,98707.13
2023-03-31T12:19:10.883Z,98704.53
2023-03-31T12:22:19.049Z,98712.34
2023-03-31T12:25:27.898Z,98715.72
2023-03-31T12:28:33.046Z,98701.50
2023-03-31T12:31:38.819Z,98697.31
2023-03-31T12:34:48.479Z,98700.41
2023-03-31T12:41:04.602Z,98681.38
2023-03-31T12:44:24.465Z,98685.22
2023-03-31T12:47:42.536Z,98697.13
2023-03-31T12:50:58.475Z,98703.56
2023-03-31T12:54:23.009Z,98712.31
2023-03-31T12:57:27.154Z,98704.00
2023-03-31T13:00:31.149Z,98690.72
2023-03-31T13:04:51.069Z,98700.09
2023-03-31T13:07:52.993Z,98686.16
2023-03-31T13:10:57.943Z,98711.25
2023-03-31T13:14:02.596Z,98701.81
2023-03-31T13:17:24.883Z,98688.31
2023-03-31T13:20:35.932Z,98685.16
2023-03-31T13:23:46.596Z,98699.38
2023-03-31T13:26:53.432Z,98686.03
2023-03-31T13:29:56.346Z,98663.41
2023-03-31T13:33:13.447Z,98672.72
2023-03-31T13:36:55.406Z,98685.00
2023-03-31T13:40:23.779Z,98685.63
2023-03-31T13:43:56.094Z,98670.25
2023-03-31T13:47:18.018Z,98670.03
2023-03-31T13:50:37.650Z,98667.41
2023-03-31T13:54:15.036Z,98679.41
2023-03-31T13:58:19.974Z,98662.41
2023-03-31T14:01:41.358Z,98679.97
2023-03-31T14:05:15.818Z,98677.75
2023-03-31T14:08:27.960Z,98666.06
2023-03-31T14:11:32.407Z,98652.41
2023-03-31T14:14:34.186Z,98657.38
2023-03-31T14:17:38.631Z,98639.47
2023-03-31T14:21:05.246Z,98612.16
2023-03-31T14:24:17.743Z,98620.50
2023-03-31T14:27:39.209Z,98628.63
2023-03-31T14:30:52.776Z,98632.88
2023-03-31T14:34:21.274Z,98635.66
2023-03-31T14:37:24.464Z,98643.78
2023-03-31T14:40:26.647Z,98639.19
2023-03-31T14:43:38.748Z,98637.19
2023-03-31T14:46:42.104Z,98635.84
2023-03-31T14:49:44.072Z,98624.88
2023-03-31T14:52:47.666Z,98624.31
2023-03-31T14:55:58.665Z,98635.75
2023-03-31T14:59:10.228Z,98628.34
2023-03-31T15:02:19.056Z,98635.88
2023-03-31T15:05:29.438Z,98633.69
2023-03-31T15:08:32.891Z,98651.69
2023-03-31T15:11:35.939Z,98680.84
2023-03-31T15:14:48.909Z,98703.53
2023-03-31T15:17:51.736Z,98715.03
2023-03-31T15:20:53.789Z,98708.06
2023-03-31T15:24:02.610Z,98692.34
2023-03-31T15:27:08.793Z,98685.13
2023-03-31T15:30:19.886Z,98676.06
2023-03-31T15:33:29.239Z,98668.94
2023-03-31T15:36:32.798Z,98659.53
2023-03-31T15:39:39.380Z,98669.13
2023-03-31T15:43:01.578Z,98671.78
2023-03-31T15:46:19.808Z,98673.63
2023-03-31T15:49:27.120Z,98668.25
2023-03-31T15:52:33.904Z,98665.81
2023-03-31T15:58:59.527Z,98656.50
2023-03-31T16:02:04.254Z,98650.97
2023-03-31T16:05:10.832Z,98653.63
2023-03-31T16:08:32.372Z,98646.03
2023-03-31T16:11:39.018Z,98633.59
2023-03-31T16:14:51.279Z,98639.53
2023-03-31T16:17:59.151Z,98637.69
2023-03-31T16:21:05.897Z,98636.13
2023-03-31T16:24:08.532Z,98649.84
2023-03-31T16:27:10.514Z,98644.03
2023-03-31T16:30:27.061Z,98645.72
2023-03-31T16:33:52.357Z,98651.25
2023-03-31T16:36:55.471Z,98643.66
2023-03-31T16:39:57.898Z,98646.63
2023-03-31T16:43:11.981Z,98646.72
2023-03-31T16:46:13.998Z,98645.00
2023-03-31T16:49:17.644Z,98647.25
2023-03-31T16:52:23.648Z,98638.16
2023-03-31T16:55:26.252Z,98645.31
2023-03-31T16:58:31.429Z,98642.59
2023-03-31T17:01:33.743Z,98645.84
2023-03-31T17:04:38.398Z,98654.03
2023-03-31T17:07:40.782Z,98651.38
2023-03-31T17:10:52.518Z,98651.09
2023-03-31T17:13:56.372Z,98657.75
2023-03-31T17:16:58.220Z,98656.13
2023-03-31T17:20:04.469Z,98659.47
2023-03-31T17:23:08.130Z,98658.75
2023-03-31T17:26:14.669Z,98662.09
2023-03-31T17:29:16.858Z,98669.78
2023-03-31T17:32:19.215Z,98665.56
2023-03-31T17:35:23.596Z,98665.75
2023-03-31T17:38:25.960Z,98667.47
2023-03-31T17:41:30.764Z,98671.19
2023-03-31T17:44:32.807Z,98674.88
2023-03-31T17:47:34.538Z,98673.84
2023-03-31T17:50:38.789Z,98676.09
2023-03-31T17:53:41.575Z,98671.72
2023-03-31T17:56:45.304Z,98671.34
2023-03-31T17:59:48.700Z,98671.25
2023-03-31T18:02:51.886Z,98675.50
2023-03-31T18:09:25.866Z,98690.66
2023-03-31T18:12:28.962Z,98695.72
2023-03-31T18:15:31.137Z,98705.34
2023-03-31T18:18:33.454Z,98713.41
2023-03-31T18:21:37.243Z,98719.47
2023-03-31T18:24:42.504Z,98714.00
2023-03-31T18:27:44.618Z,98706.13
2023-03-31T18:30:48.413Z,98717.44
2023-03-31T18:33:52.146Z,98712.28
2023-03-31T18:36:55.583Z,98722.50
2023-03-31T18:39:57.668Z,98721.28
2023-03-31T18:42:59.449Z,98715.03
2023-03-31T18:46:01.848Z,98723.38
2023-03-31T18:49:04.443Z,98724.09
2023-03-31T18:52:07.866Z,98723.06
2023-03-31T18:55:10.069Z,98732.09
2023-03-31T18:58:12.099Z,98735.41
2023-03-31T19:01:40.286Z,98737.00
2023-03-31T19:04:42.126Z,98722.44
2023-03-31T19:07:46.797Z,98731.72
2023-03-31T19:10:49.089Z,98729.81
2023-03-31T19:13:52.735Z,98732.22
2023-03-31T19:16:55.976Z,98746.63
2023-03-31T19:19:57.846Z,98749.34
2023-03-31T19:23:02.958Z,98743.50
2023-03-31T19:26:05.414Z,98743.06
2023-03-31T19:29:09.476Z,98742.53
2023-03-31T19:32:12.808Z,98748.28
2023-03-31T19:35:15.527Z,98748.50
2023-03-31T19:38:21.975Z,98741.41
2023-03-31T19:41:23.928Z,98738.69
2023-03-31T19:44:25.965Z,98735.97
2023-03-31T19:47:27.817Z,98750.75
2023-03-31T19:50:29.600Z,98742.59
2023-03-31T19:53:35.292Z,98747.81
2023-03-31T19:56:37.824Z,98748.88
2023-03-31T19:59:39.638Z,98746.25
2023-03-31T20:02:43.731Z,98760.25
2023-03-31T20:05:46.070Z,98754.66
2023-03-31T20:08:52.924Z,98766.28
2023-03-31T20:11:54.794Z,98744.31
2023-03-31T20:14:59.793Z,98754.25
2023-03-31T20:18:02.842Z,98759.38
2023-03-31T20:21:06.961Z,98753.56
2023-03-31T20:24:16.304Z,98756.38
2023-03-31T20:27:18.651Z,98755.31
2023-03-31T20:30:20.593Z,98756.66
2023-03-31T20:33:24.588Z,98756.78
2023-03-31T20:36:31.921Z,98744.78
2023-03-31T20:39:38.462Z,98749.34
2023-03-31T20:42:40.546Z,98754.69
2023-03-31T20:45:42.393Z,98756.19
2023-03-31T20:48:49.770Z,98757.63
2023-03-31T20:51:51.716Z,98765.88
2023-03-31T20:54:54.909Z,98755.47
2023-03-31T20:57:57.369Z,98764.16
2023-03-31T21:00:59.314Z,98762.09
2023-03-31T21:04:08.769Z,98766.69
2023-03-31T21:07:10.827Z,98759.69
2023-03-31T21:10:16.758Z,98761.19
2023-03-31T21:13:18.777Z,98759.16
2023-03-31T21:16:21.061Z,98768.41
2023-03-31T21:19:22.942Z,98766.16
2023-03-31T21:22:24.720Z,98770.72
2023-03-31T21:25:28.186Z,98767.28
2023-03-31T21:28:36.688Z,98768.19
2023-03-31T21:31:38.819Z,98769.91
2023-03-31T21:34:40.879Z,98766.97
2023-03-31T21:37:42.572Z,98779.38
2023-03-31T21:40:48.614Z,98771.50
2023-03-31T21:43:51.465Z,98774.03
2023-03-31T21:46:53.108Z,98774.94
2023-03-31T21:49:55.264Z,98779.38
2023-03-31T21:52:57.355Z,98776.41
2023-03-31T21:56:00.592Z,98780.19
2023-03-31T21:59:04.318Z,98767.06
2023-03-31T22:02:06.413Z,98778.34
2023-03-31T22:05:09.971Z,98781.22
2023-03-31T22:08:11.711Z,98785.63
2023-03-31T22:11:15.021Z,98777.19
2023-03-31T22:14:16.893Z,98788.03
2023-03-31T22:17:20.760Z,98784.59
2023-03-31T22:20:22.939Z,98797.59
2023-03-31T22:23:25.803Z,98781.25
2023-03-31T22:26:31.142Z,98782.19
2023-03-31T22:29:33.545Z,98785.59
2023-03-31T22:32:36.090Z,98781.38
2023-03-31T22:35:38.717Z,98780.69
2023-03-31T22:38:41.893Z,98783.09
2023-03-31T22:41:45.410Z,98784.91
2023-03-31T22:44:47.755Z,98782.28
2023-03-31T22:47:49.506Z,98784.91
2023-03-31T22:50:51.411Z,98789.25
2023-03-31T22:53:54.690Z,98780.59
2023-03-31T22:56:57.802Z,98789.25
2023-03-31T23:00:04.928Z,98783.09
2023-03-31T23:03:06.704Z,98779.56
2023-03-31T23:06:09.313Z,98780.16
2023-03-31T23:09:11.790Z,98779.22
2023-03-31T23:12:15.433Z,98778.22
2023-03-31T23:15:18.462Z,98781.84
2023-03-31T23:18:21.404Z,98784.25
2023-03-31T23:21:25.648Z,98778.09
2023-03-31T23:24:29.245Z,98785.28
2023-03-31T23:27:34.783Z,98789.84
2023-03-31T23:30:38.550Z,98793.75
2023-03-31T23:33:40.624Z,98788.38
2023-03-31T23:36:42.660Z,98786.56
2023-03-31T23:39:44.435Z,98778.34
2023-03-31T23:42:47.495Z,98783.59
2023-03-31T23:45:49.326Z,98775.72
2023-03-31T23:48:51.448Z,98773.69
2023-03-31T23:51:57.719Z,98772.00
2023-03-31T23:54:59.511Z,98773.00
2023-03-31T23:58:03.389Z,98765.13
